sensor_id;sensor_type;location;lat;lon;timestamp;P1;durP1;ratioP1;P2;durP2;ratioP2
19280;SDS011;9774;52.034;5.342;2022-07-05T00:00:15;1.02;;;0.93;;
19280;SDS011;9774;52.034;5.342;2022-07-05T00:02:42;1.23;;;1.13;;
19280;SDS011;9774;52.034;5.342;2022-07-05T00:05:10;2.10;;;1.40;;
19280;SDS011;9774;52.034;5.342;2022-07-05T00:07:37;2.25;;;1.73;;
19280;SDS011;9774;52.034;5.342;2022-07-05T00:10:05;1.98;;;0.93;;
19280;SDS011;9774;52.034;5.342;2022-07-05T00:12:32;3.60;;;1.20;;
19280;SDS011;9774;52.034;5.342;2022-07-05T00:15:01;1.90;;;1.00;;
19280;SDS011;9774;52.034;5.342;2022-07-05T00:17:29;1.50;;;1.13;;
19280;SDS011;9774;52.034;5.342;2022-07-05T00:19:56;1.58;;;1.00;;
19280;SDS011;9774;52.034;5.342;2022-07-05T00:22:24;1.38;;;1.05;;
19280;SDS011;9774;52.034;5.342;2022-07-05T00:24:51;1.77;;;1.33;;
19280;SDS011;9774;52.034;5.342;2022-07-05T00:27:18;1.50;;;1.40;;
19280;SDS011;9774;52.034;5.342;2022-07-05T00:29:46;1.15;;;1.05;;
19280;SDS011;9774;52.034;5.342;2022-07-05T00:32:14;1.75;;;1.02;;
19280;SDS011;9774;52.034;5.342;2022-07-05T00:34:42;4.60;;;1.02;;
19280;SDS011;9774;52.034;5.342;2022-07-05T00:37:09;1.55;;;1.27;;
19280;SDS011;9774;52.034;5.342;2022-07-05T00:39:37;1.20;;;1.10;;
19280;SDS011;9774;52.034;5.342;2022-07-05T00:42:04;1.80;;;1.60;;
19280;SDS011;9774;52.034;5.342;2022-07-05T00:44:32;1.40;;;1.27;;
19280;SDS011;9774;52.034;5.342;2022-07-05T00:47:01;1.20;;;1.10;;
19280;SDS011;9774;52.034;5.342;2022-07-05T00:49:30;3.05;;;1.40;;
19280;SDS011;9774;52.034;5.342;2022-07-05T00:51:59;1.50;;;1.35;;
19280;SDS011;9774;52.034;5.342;2022-07-05T00:54:26;1.10;;;1.00;;
19280;SDS011;9774;52.034;5.342;2022-07-05T00:56:54;1.48;;;1.20;;
19280;SDS011;9774;52.034;5.342;2022-07-05T00:59:22;1.52;;;1.35;;
19280;SDS011;9774;52.034;5.342;2022-07-05T01:01:49;1.30;;;1.20;;
19280;SDS011;9774;52.034;5.342;2022-07-05T01:04:17;2.35;;;1.40;;
19280;SDS011;9774;52.034;5.342;2022-07-05T01:06:47;1.27;;;1.17;;
19280;SDS011;9774;52.034;5.342;2022-07-05T01:09:15;2.40;;;1.17;;
19280;SDS011;9774;52.034;5.342;2022-07-05T01:11:44;1.30;;;1.20;;
19280;SDS011;9774;52.034;5.342;2022-07-05T01:14:13;2.60;;;1.70;;
19280;SDS011;9774;52.034;5.342;2022-07-05T01:16:44;1.52;;;1.00;;
19280;SDS011;9774;52.034;5.342;2022-07-05T01:19:11;1.40;;;1.02;;
19280;SDS011;9774;52.034;5.342;2022-07-05T01:21:40;1.48;;;1.38;;
19280;SDS011;9774;52.034;5.342;2022-07-05T01:24:10;1.50;;;1.25;;
19280;SDS011;9774;52.034;5.342;2022-07-05T01:26:41;2.50;;;1.30;;
19280;SDS011;9774;52.034;5.342;2022-07-05T01:29:11;1.40;;;1.15;;
19280;SDS011;9774;52.034;5.342;2022-07-05T01:31:39;1.77;;;1.00;;
19280;SDS011;9774;52.034;5.342;2022-07-05T01:34:07;2.17;;;1.30;;
19280;SDS011;9774;52.034;5.342;2022-07-05T01:36:35;1.95;;;1.35;;
19280;SDS011;9774;52.034;5.342;2022-07-05T01:39:03;2.05;;;1.30;;
19280;SDS011;9774;52.034;5.342;2022-07-05T01:41:33;1.80;;;1.20;;
19280;SDS011;9774;52.034;5.342;2022-07-05T01:44:00;1.33;;;1.17;;
19280;SDS011;9774;52.034;5.342;2022-07-05T01:46:30;2.63;;;1.13;;
19280;SDS011;9774;52.034;5.342;2022-07-05T01:49:03;1.35;;;1.00;;
19280;SDS011;9774;52.034;5.342;2022-07-05T01:51:33;1.27;;;1.17;;
19280;SDS011;9774;52.034;5.342;2022-07-05T01:54:05;1.15;;;1.05;;
19280;SDS011;9774;52.034;5.342;2022-07-05T01:56:34;1.40;;;1.23;;
19280;SDS011;9774;52.034;5.342;2022-07-05T01:59:03;1.20;;;1.10;;
19280;SDS011;9774;52.034;5.342;2022-07-05T02:01:32;2.58;;;1.40;;
19280;SDS011;9774;52.034;5.342;2022-07-05T02:04:01;1.48;;;1.20;;
19280;SDS011;9774;52.034;5.342;2022-07-05T02:06:30;2.33;;;1.20;;
19280;SDS011;9774;52.034;5.342;2022-07-05T02:08:58;1.60;;;1.20;;
19280;SDS011;9774;52.034;5.342;2022-07-05T02:11:26;1.85;;;1.52;;
19280;SDS011;9774;52.034;5.342;2022-07-05T02:13:54;1.33;;;1.20;;
19280;SDS011;9774;52.034;5.342;2022-07-05T02:16:23;1.27;;;1.10;;
19280;SDS011;9774;52.034;5.342;2022-07-05T02:18:51;4.13;;;1.65;;
19280;SDS011;9774;52.034;5.342;2022-07-05T02:21:19;1.63;;;1.10;;
19280;SDS011;9774;52.034;5.342;2022-07-05T02:23:46;1.52;;;1.20;;
19280;SDS011;9774;52.034;5.342;2022-07-05T02:26:14;2.17;;;1.63;;
19280;SDS011;9774;52.034;5.342;2022-07-05T02:28:41;2.00;;;1.30;;
19280;SDS011;9774;52.034;5.342;2022-07-05T02:31:10;1.98;;;1.65;;
19280;SDS011;9774;52.034;5.342;2022-07-05T02:33:37;2.33;;;1.65;;
19280;SDS011;9774;52.034;5.342;2022-07-05T02:36:05;1.63;;;1.48;;
19280;SDS011;9774;52.034;5.342;2022-07-05T02:38:34;2.05;;;1.17;;
19280;SDS011;9774;52.034;5.342;2022-07-05T02:41:03;3.50;;;1.80;;
19280;SDS011;9774;52.034;5.342;2022-07-05T02:43:32;4.28;;;1.52;;
19280;SDS011;9774;52.034;5.342;2022-07-05T02:46:00;2.15;;;1.40;;
19280;SDS011;9774;52.034;5.342;2022-07-05T02:48:28;1.88;;;1.50;;
19280;SDS011;9774;52.034;5.342;2022-07-05T02:50:56;2.13;;;1.55;;
19280;SDS011;9774;52.034;5.342;2022-07-05T02:53:24;2.25;;;1.95;;
19280;SDS011;9774;52.034;5.342;2022-07-05T02:55:51;2.13;;;1.55;;
19280;SDS011;9774;52.034;5.342;2022-07-05T02:58:18;2.33;;;2.00;;
19280;SDS011;9774;52.034;5.342;2022-07-05T03:00:46;2.58;;;1.38;;
19280;SDS011;9774;52.034;5.342;2022-07-05T03:03:14;1.40;;;1.23;;
19280;SDS011;9774;52.034;5.342;2022-07-05T03:05:43;2.00;;;1.80;;
19280;SDS011;9774;52.034;5.342;2022-07-05T03:08:11;1.92;;;1.38;;
19280;SDS011;9774;52.034;5.342;2022-07-05T03:10:38;1.85;;;1.70;;
19280;SDS011;9774;52.034;5.342;2022-07-05T03:13:05;2.13;;;1.65;;
19280;SDS011;9774;52.034;5.342;2022-07-05T03:15:33;2.30;;;1.80;;
19280;SDS011;9774;52.034;5.342;2022-07-05T03:18:00;4.45;;;1.85;;
19280;SDS011;9774;52.034;5.342;2022-07-05T03:20:27;1.80;;;1.70;;
19280;SDS011;9774;52.034;5.342;2022-07-05T03:22:57;1.70;;;1.60;;
19280;SDS011;9774;52.034;5.342;2022-07-05T03:25:24;2.70;;;1.52;;
19280;SDS011;9774;52.034;5.342;2022-07-05T03:27:52;2.35;;;1.70;;
19280;SDS011;9774;52.034;5.342;2022-07-05T03:30:19;2.30;;;1.35;;
19280;SDS011;9774;52.034;5.342;2022-07-05T03:32:48;2.35;;;1.52;;
19280;SDS011;9774;52.034;5.342;2022-07-05T03:35:15;2.30;;;1.42;;
19280;SDS011;9774;52.034;5.342;2022-07-05T03:37:43;2.58;;;1.80;;
19280;SDS011;9774;52.034;5.342;2022-07-05T03:40:11;1.92;;;1.60;;
19280;SDS011;9774;52.034;5.342;2022-07-05T03:42:39;1.67;;;1.55;;
19280;SDS011;9774;52.034;5.342;2022-07-05T03:45:06;2.78;;;1.80;;
19280;SDS011;9774;52.034;5.342;2022-07-05T03:47:34;3.10;;;1.90;;
19280;SDS011;9774;52.034;5.342;2022-07-05T03:50:02;1.77;;;1.60;;
19280;SDS011;9774;52.034;5.342;2022-07-05T03:52:30;3.00;;;1.67;;
19280;SDS011;9774;52.034;5.342;2022-07-05T03:54:57;2.28;;;1.45;;
19280;SDS011;9774;52.034;5.342;2022-07-05T03:57:26;1.70;;;1.60;;
19280;SDS011;9774;52.034;5.342;2022-07-05T03:59:53;2.25;;;1.83;;
19280;SDS011;9774;52.034;5.342;2022-07-05T04:02:21;1.83;;;1.40;;
19280;SDS011;9774;52.034;5.342;2022-07-05T04:04:48;2.38;;;1.73;;
19280;SDS011;9774;52.034;5.342;2022-07-05T04:07:15;2.47;;;1.58;;
19280;SDS011;9774;52.034;5.342;2022-07-05T04:09:43;1.75;;;1.65;;
19280;SDS011;9774;52.034;5.342;2022-07-05T04:12:10;2.00;;;1.73;;
19280;SDS011;9774;52.034;5.342;2022-07-05T04:14:39;3.10;;;1.70;;
19280;SDS011;9774;52.034;5.342;2022-07-05T04:17:06;2.10;;;1.60;;
19280;SDS011;9774;52.034;5.342;2022-07-05T04:19:33;1.83;;;1.67;;
19280;SDS011;9774;52.034;5.342;2022-07-05T04:22:01;3.75;;;1.60;;
19280;SDS011;9774;52.034;5.342;2022-07-05T04:24:28;1.92;;;1.77;;
19280;SDS011;9774;52.034;5.342;2022-07-05T04:26:55;3.90;;;1.80;;
19280;SDS011;9774;52.034;5.342;2022-07-05T04:29:23;2.42;;;1.65;;
19280;SDS011;9774;52.034;5.342;2022-07-05T04:31:51;3.75;;;1.58;;
19280;SDS011;9774;52.034;5.342;2022-07-05T04:34:19;2.33;;;1.73;;
19280;SDS011;9774;52.034;5.342;2022-07-05T04:36:46;1.95;;;1.73;;
19280;SDS011;9774;52.034;5.342;2022-07-05T04:39:13;2.20;;;1.80;;
19280;SDS011;9774;52.034;5.342;2022-07-05T04:41:40;1.92;;;1.70;;
19280;SDS011;9774;52.034;5.342;2022-07-05T04:44:08;2.58;;;2.00;;
19280;SDS011;9774;52.034;5.342;2022-07-05T04:46:35;1.80;;;1.65;;
19280;SDS011;9774;52.034;5.342;2022-07-05T04:49:04;2.42;;;2.03;;
19280;SDS011;9774;52.034;5.342;2022-07-05T04:51:31;1.88;;;1.70;;
19280;SDS011;9774;52.034;5.342;2022-07-05T04:53:58;2.78;;;2.25;;
19280;SDS011;9774;52.034;5.342;2022-07-05T04:56:25;3.72;;;2.00;;
19280;SDS011;9774;52.034;5.342;2022-07-05T04:58:53;2.58;;;2.20;;
19280;SDS011;9774;52.034;5.342;2022-07-05T05:01:20;3.08;;;2.53;;
19280;SDS011;9774;52.034;5.342;2022-07-05T05:03:48;3.58;;;2.40;;
19280;SDS011;9774;52.034;5.342;2022-07-05T05:06:16;2.80;;;2.28;;
19280;SDS011;9774;52.034;5.342;2022-07-05T05:08:46;4.65;;;2.90;;
19280;SDS011;9774;52.034;5.342;2022-07-05T05:11:14;3.10;;;2.80;;
19280;SDS011;9774;52.034;5.342;2022-07-05T05:13:41;3.35;;;3.05;;
19280;SDS011;9774;52.034;5.342;2022-07-05T05:16:10;3.60;;;3.10;;
19280;SDS011;9774;52.034;5.342;2022-07-05T05:18:37;3.85;;;2.72;;
19280;SDS011;9774;52.034;5.342;2022-07-05T05:21:06;2.92;;;2.45;;
19280;SDS011;9774;52.034;5.342;2022-07-05T05:23:34;6.72;;;3.15;;
19280;SDS011;9774;52.034;5.342;2022-07-05T05:26:02;3.20;;;2.90;;
19280;SDS011;9774;52.034;5.342;2022-07-05T05:28:29;5.55;;;3.17;;
19280;SDS011;9774;52.034;5.342;2022-07-05T05:30:57;3.88;;;3.42;;
19280;SDS011;9774;52.034;5.342;2022-07-05T05:33:24;4.38;;;3.10;;
19280;SDS011;9774;52.034;5.342;2022-07-05T05:35:51;4.85;;;3.17;;
19280;SDS011;9774;52.034;5.342;2022-07-05T05:38:19;3.13;;;2.80;;
19280;SDS011;9774;52.034;5.342;2022-07-05T05:40:47;3.97;;;3.03;;
19280;SDS011;9774;52.034;5.342;2022-07-05T05:43:14;4.10;;;3.65;;
19280;SDS011;9774;52.034;5.342;2022-07-05T05:45:42;4.88;;;3.35;;
19280;SDS011;9774;52.034;5.342;2022-07-05T05:48:09;4.90;;;4.07;;
19280;SDS011;9774;52.034;5.342;2022-07-05T05:50:37;5.45;;;4.63;;
19280;SDS011;9774;52.034;5.342;2022-07-05T05:53:05;5.00;;;4.05;;
19280;SDS011;9774;52.034;5.342;2022-07-05T05:55:32;5.55;;;4.70;;
19280;SDS011;9774;52.034;5.342;2022-07-05T05:58:11;6.30;;;3.92;;
19280;SDS011;9774;52.034;5.342;2022-07-05T06:00:39;4.80;;;3.80;;
19280;SDS011;9774;52.034;5.342;2022-07-05T06:03:06;4.78;;;4.28;;
19280;SDS011;9774;52.034;5.342;2022-07-05T06:05:34;5.22;;;3.97;;
19280;SDS011;9774;52.034;5.342;2022-07-05T06:08:02;6.32;;;3.80;;
19280;SDS011;9774;52.034;5.342;2022-07-05T06:10:30;4.45;;;3.85;;
19280;SDS011;9774;52.034;5.342;2022-07-05T06:12:59;4.47;;;4.05;;
19280;SDS011;9774;52.034;5.342;2022-07-05T06:15:33;4.68;;;4.28;;
19280;SDS011;9774;52.034;5.342;2022-07-05T06:18:01;4.20;;;3.80;;
19280;SDS011;9774;52.034;5.342;2022-07-05T06:20:30;4.90;;;4.30;;
19280;SDS011;9774;52.034;5.342;2022-07-05T06:22:59;5.55;;;4.25;;
19280;SDS011;9774;52.034;5.342;2022-07-05T06:25:28;4.32;;;3.92;;
19280;SDS011;9774;52.034;5.342;2022-07-05T06:27:57;4.93;;;3.95;;
19280;SDS011;9774;52.034;5.342;2022-07-05T06:30:28;4.65;;;4.15;;
19280;SDS011;9774;52.034;5.342;2022-07-05T06:32:57;5.70;;;4.25;;
19280;SDS011;9774;52.034;5.342;2022-07-05T06:35:25;4.70;;;4.30;;
19280;SDS011;9774;52.034;5.342;2022-07-05T06:37:54;6.63;;;4.55;;
19280;SDS011;9774;52.034;5.342;2022-07-05T06:40:24;6.80;;;4.85;;
19280;SDS011;9774;52.034;5.342;2022-07-05T06:42:53;4.28;;;3.83;;
19280;SDS011;9774;52.034;5.342;2022-07-05T06:45:21;7.38;;;4.78;;
19280;SDS011;9774;52.034;5.342;2022-07-05T06:47:56;6.15;;;4.20;;
19280;SDS011;9774;52.034;5.342;2022-07-05T06:50:26;4.85;;;3.95;;
19280;SDS011;9774;52.034;5.342;2022-07-05T06:52:54;7.00;;;4.55;;
19280;SDS011;9774;52.034;5.342;2022-07-05T06:55:22;5.07;;;4.25;;
19280;SDS011;9774;52.034;5.342;2022-07-05T06:57:55;4.20;;;3.80;;
19280;SDS011;9774;52.034;5.342;2022-07-05T07:00:24;4.05;;;3.70;;
19280;SDS011;9774;52.034;5.342;2022-07-05T07:02:52;7.32;;;4.43;;
19280;SDS011;9774;52.034;5.342;2022-07-05T07:05:21;4.63;;;4.10;;
19280;SDS011;9774;52.034;5.342;2022-07-05T07:07:49;6.15;;;3.38;;
19280;SDS011;9774;52.034;5.342;2022-07-05T07:10:34;3.83;;;3.50;;
19280;SDS011;9774;52.034;5.342;2022-07-05T07:13:02;4.57;;;4.03;;
19280;SDS011;9774;52.034;5.342;2022-07-05T07:15:29;5.07;;;3.75;;
19280;SDS011;9774;52.034;5.342;2022-07-05T07:17:58;3.75;;;3.42;;
19280;SDS011;9774;52.034;5.342;2022-07-05T07:20:27;4.03;;;3.63;;
19280;SDS011;9774;52.034;5.342;2022-07-05T07:22:54;6.85;;;3.63;;
19280;SDS011;9774;52.034;5.342;2022-07-05T07:25:22;3.33;;;2.85;;
19280;SDS011;9774;52.034;5.342;2022-07-05T07:27:50;4.82;;;3.20;;
19280;SDS011;9774;52.034;5.342;2022-07-05T07:30:20;5.53;;;3.30;;
19280;SDS011;9774;52.034;5.342;2022-07-05T07:32:49;3.45;;;3.13;;
19280;SDS011;9774;52.034;5.342;2022-07-05T07:35:16;3.35;;;3.05;;
19280;SDS011;9774;52.034;5.342;2022-07-05T07:37:45;5.80;;;3.70;;
19280;SDS011;9774;52.034;5.342;2022-07-05T07:40:13;3.38;;;3.08;;
19280;SDS011;9774;52.034;5.342;2022-07-05T07:42:40;3.28;;;2.83;;
19280;SDS011;9774;52.034;5.342;2022-07-05T07:45:08;3.65;;;3.20;;
19280;SDS011;9774;52.034;5.342;2022-07-05T07:47:37;3.38;;;3.05;;
19280;SDS011;9774;52.034;5.342;2022-07-05T07:50:05;11.38;;;3.90;;
19280;SDS011;9774;52.034;5.342;2022-07-05T07:52:32;4.10;;;3.22;;
19280;SDS011;9774;52.034;5.342;2022-07-05T07:55:03;4.78;;;3.92;;
19280;SDS011;9774;52.034;5.342;2022-07-05T07:57:31;5.20;;;3.22;;
19280;SDS011;9774;52.034;5.342;2022-07-05T07:59:58;3.72;;;2.72;;
19280;SDS011;9774;52.034;5.342;2022-07-05T08:02:26;5.70;;;3.28;;
19280;SDS011;9774;52.034;5.342;2022-07-05T08:04:53;3.75;;;3.28;;
19280;SDS011;9774;52.034;5.342;2022-07-05T08:07:23;4.40;;;3.22;;
19280;SDS011;9774;52.034;5.342;2022-07-05T08:09:50;4.10;;;2.72;;
19280;SDS011;9774;52.034;5.342;2022-07-05T08:12:19;2.97;;;2.67;;
19280;SDS011;9774;52.034;5.342;2022-07-05T08:14:47;4.55;;;2.45;;
19280;SDS011;9774;52.034;5.342;2022-07-05T08:17:14;4.03;;;2.88;;
19280;SDS011;9774;52.034;5.342;2022-07-05T08:19:42;4.93;;;3.00;;
19280;SDS011;9774;52.034;5.342;2022-07-05T08:22:29;3.22;;;2.92;;
19280;SDS011;9774;52.034;5.342;2022-07-05T08:24:57;3.20;;;2.90;;
19280;SDS011;9774;52.034;5.342;2022-07-05T08:27:25;3.60;;;2.97;;
19280;SDS011;9774;52.034;5.342;2022-07-05T08:29:53;2.88;;;2.45;;
19280;SDS011;9774;52.034;5.342;2022-07-05T08:32:20;1.80;;;1.20;;
19280;SDS011;9774;52.034;5.342;2022-07-05T08:34:47;1.60;;;0.98;;
19280;SDS011;9774;52.034;5.342;2022-07-05T08:37:14;1.95;;;1.25;;
19280;SDS011;9774;52.034;5.342;2022-07-05T08:39:42;3.55;;;1.60;;
19280;SDS011;9774;52.034;5.342;2022-07-05T08:42:10;2.55;;;1.40;;
19280;SDS011;9774;52.034;5.342;2022-07-05T08:44:39;1.40;;;1.30;;
19280;SDS011;9774;52.034;5.342;2022-07-05T08:47:10;2.35;;;1.65;;
19280;SDS011;9774;52.034;5.342;2022-07-05T08:49:39;2.42;;;1.65;;
19280;SDS011;9774;52.034;5.342;2022-07-05T08:52:07;4.40;;;1.42;;
19280;SDS011;9774;52.034;5.342;2022-07-05T08:54:37;1.25;;;1.13;;
19280;SDS011;9774;52.034;5.342;2022-07-05T08:57:05;1.88;;;1.40;;
19280;SDS011;9774;52.034;5.342;2022-07-05T08:59:32;3.33;;;1.40;;
19280;SDS011;9774;52.034;5.342;2022-07-05T09:02:01;2.25;;;1.55;;
19280;SDS011;9774;52.034;5.342;2022-07-05T09:04:30;5.70;;;1.45;;
19280;SDS011;9774;52.034;5.342;2022-07-05T09:07:03;3.90;;;1.52;;
19280;SDS011;9774;52.034;5.342;2022-07-05T09:09:32;1.88;;;1.27;;
19280;SDS011;9774;52.034;5.342;2022-07-05T09:12:03;1.50;;;1.40;;
19280;SDS011;9774;52.034;5.342;2022-07-05T09:14:31;1.98;;;1.00;;
19280;SDS011;9774;52.034;5.342;2022-07-05T09:16:58;1.67;;;1.25;;
19280;SDS011;9774;52.034;5.342;2022-07-05T09:19:27;3.42;;;1.30;;
19280;SDS011;9774;52.034;5.342;2022-07-05T09:22:00;1.98;;;0.75;;
19280;SDS011;9774;52.034;5.342;2022-07-05T09:24:29;1.35;;;1.02;;
19280;SDS011;9774;52.034;5.342;2022-07-05T09:27:05;1.67;;;1.23;;
19280;SDS011;9774;52.034;5.342;2022-07-05T09:29:33;1.70;;;0.90;;
19280;SDS011;9774;52.034;5.342;2022-07-05T09:32:02;2.53;;;0.80;;
19280;SDS011;9774;52.034;5.342;2022-07-05T09:34:30;1.40;;;1.30;;
19280;SDS011;9774;52.034;5.342;2022-07-05T09:37:01;1.17;;;1.02;;
19280;SDS011;9774;52.034;5.342;2022-07-05T09:39:36;1.17;;;1.00;;
19280;SDS011;9774;52.034;5.342;2022-07-05T09:42:14;1.80;;;0.90;;
19280;SDS011;9774;52.034;5.342;2022-07-05T09:44:48;1.65;;;0.93;;
19280;SDS011;9774;52.034;5.342;2022-07-05T09:47:18;2.00;;;1.00;;
19280;SDS011;9774;52.034;5.342;2022-07-05T09:49:47;2.17;;;1.20;;
19280;SDS011;9774;52.034;5.342;2022-07-05T09:52:25;1.38;;;1.00;;
19280;SDS011;9774;52.034;5.342;2022-07-05T09:55:03;1.60;;;0.80;;
19280;SDS011;9774;52.034;5.342;2022-07-05T09:57:32;1.95;;;0.80;;
19280;SDS011;9774;52.034;5.342;2022-07-05T10:00:02;1.52;;;0.80;;
19280;SDS011;9774;52.034;5.342;2022-07-05T10:02:36;0.85;;;0.73;;
19280;SDS011;9774;52.034;5.342;2022-07-05T10:05:09;2.95;;;1.10;;
19280;SDS011;9774;52.034;5.342;2022-07-05T10:07:38;2.95;;;0.65;;
19280;SDS011;9774;52.034;5.342;2022-07-05T10:10:07;0.85;;;0.60;;
19280;SDS011;9774;52.034;5.342;2022-07-05T10:12:37;0.88;;;0.57;;
19280;SDS011;9774;52.034;5.342;2022-07-05T10:15:06;0.95;;;0.65;;
19280;SDS011;9774;52.034;5.342;2022-07-05T10:17:41;0.80;;;0.40;;
19280;SDS011;9774;52.034;5.342;2022-07-05T10:20:11;0.82;;;0.50;;
19280;SDS011;9774;52.034;5.342;2022-07-05T10:22:44;0.98;;;0.55;;
19280;SDS011;9774;52.034;5.342;2022-07-05T10:25:12;0.93;;;0.68;;
19280;SDS011;9774;52.034;5.342;2022-07-05T10:27:40;2.42;;;0.70;;
19280;SDS011;9774;52.034;5.342;2022-07-05T10:30:09;0.70;;;0.60;;
19280;SDS011;9774;52.034;5.342;2022-07-05T10:32:39;0.98;;;0.60;;
19280;SDS011;9774;52.034;5.342;2022-07-05T10:35:07;0.60;;;0.40;;
19280;SDS011;9774;52.034;5.342;2022-07-05T10:37:35;0.35;;;0.35;;
19280;SDS011;9774;52.034;5.342;2022-07-05T10:40:03;0.93;;;0.40;;
19280;SDS011;9774;52.034;5.342;2022-07-05T10:42:33;1.23;;;0.50;;
19280;SDS011;9774;52.034;5.342;2022-07-05T10:48:15;1.88;;;0.50;;
19280;SDS011;9774;52.034;5.342;2022-07-05T10:50:44;1.42;;;0.60;;
19280;SDS011;9774;52.034;5.342;2022-07-05T10:53:17;0.65;;;0.50;;
19280;SDS011;9774;52.034;5.342;2022-07-05T10:55:56;0.60;;;0.57;;
19280;SDS011;9774;52.034;5.342;2022-07-05T10:58:30;0.85;;;0.50;;
19280;SDS011;9774;52.034;5.342;2022-07-05T11:04:10;1.50;;;0.43;;
19280;SDS011;9774;52.034;5.342;2022-07-05T11:06:45;1.00;;;0.50;;
19280;SDS011;9774;52.034;5.342;2022-07-05T11:09:15;1.38;;;0.55;;
19280;SDS011;9774;52.034;5.342;2022-07-05T11:11:44;1.90;;;0.40;;
19280;SDS011;9774;52.034;5.342;2022-07-05T11:17:10;2.20;;;0.45;;
19280;SDS011;9774;52.034;5.342;2022-07-05T11:22:31;1.88;;;0.68;;
19280;SDS011;9774;52.034;5.342;2022-07-05T11:24:59;1.90;;;0.50;;
19280;SDS011;9774;52.034;5.342;2022-07-05T11:27:27;1.48;;;0.80;;
19280;SDS011;9774;52.034;5.342;2022-07-05T11:29:57;0.60;;;0.43;;
19280;SDS011;9774;52.034;5.342;2022-07-05T11:32:34;1.25;;;0.65;;
19280;SDS011;9774;52.034;5.342;2022-07-05T11:35:14;1.40;;;0.73;;
19280;SDS011;9774;52.034;5.342;2022-07-05T11:40:29;0.75;;;0.45;;
19280;SDS011;9774;52.034;5.342;2022-07-05T11:42:58;1.75;;;0.60;;
19280;SDS011;9774;52.034;5.342;2022-07-05T11:45:27;1.05;;;0.70;;
19280;SDS011;9774;52.034;5.342;2022-07-05T11:47:56;1.67;;;0.80;;
19280;SDS011;9774;52.034;5.342;2022-07-05T11:50:29;1.00;;;0.40;;
19280;SDS011;9774;52.034;5.342;2022-07-05T11:52:58;1.05;;;0.70;;
19280;SDS011;9774;52.034;5.342;2022-07-05T11:55:26;1.88;;;0.55;;
19280;SDS011;9774;52.034;5.342;2022-07-05T11:57:54;0.90;;;0.40;;
19280;SDS011;9774;52.034;5.342;2022-07-05T12:00:26;1.92;;;0.50;;
19280;SDS011;9774;52.034;5.342;2022-07-05T12:02:56;1.55;;;0.57;;
19280;SDS011;9774;52.034;5.342;2022-07-05T12:05:28;2.35;;;0.50;;
19280;SDS011;9774;52.034;5.342;2022-07-05T12:07:57;0.80;;;0.50;;
19280;SDS011;9774;52.034;5.342;2022-07-05T12:10:25;1.00;;;0.63;;
19280;SDS011;9774;52.034;5.342;2022-07-05T12:13:10;1.48;;;0.50;;
19280;SDS011;9774;52.034;5.342;2022-07-05T12:15:38;0.90;;;0.45;;
19280;SDS011;9774;52.034;5.342;2022-07-05T12:18:06;1.67;;;0.63;;
19280;SDS011;9774;52.034;5.342;2022-07-05T12:20:38;1.17;;;0.50;;
19280;SDS011;9774;52.034;5.342;2022-07-05T12:23:06;1.60;;;0.32;;
19280;SDS011;9774;52.034;5.342;2022-07-05T12:25:34;1.55;;;0.50;;
19280;SDS011;9774;52.034;5.342;2022-07-05T12:28:02;0.55;;;0.45;;
19280;SDS011;9774;52.034;5.342;2022-07-05T12:30:32;1.42;;;0.40;;
19280;SDS011;9774;52.034;5.342;2022-07-05T12:33:00;3.28;;;0.47;;
19280;SDS011;9774;52.034;5.342;2022-07-05T12:35:30;1.08;;;0.40;;
19280;SDS011;9774;52.034;5.342;2022-07-05T12:38:04;1.73;;;0.40;;
19280;SDS011;9774;52.034;5.342;2022-07-05T12:40:32;0.50;;;0.30;;
19280;SDS011;9774;52.034;5.342;2022-07-05T12:43:01;7.38;;;0.93;;
19280;SDS011;9774;52.034;5.342;2022-07-05T12:45:30;1.33;;;0.35;;
19280;SDS011;9774;52.034;5.342;2022-07-05T12:47:58;0.77;;;0.40;;
19280;SDS011;9774;52.034;5.342;2022-07-05T12:50:29;0.40;;;0.30;;
19280;SDS011;9774;52.034;5.342;2022-07-05T12:53:10;0.68;;;0.30;;
19280;SDS011;9774;52.034;5.342;2022-07-05T12:55:59;0.40;;;0.32;;
19280;SDS011;9774;52.034;5.342;2022-07-05T12:58:49;1.55;;;0.32;;
19280;SDS011;9774;52.034;5.342;2022-07-05T13:01:19;0.82;;;0.30;;
19280;SDS011;9774;52.034;5.342;2022-07-05T13:03:58;0.40;;;0.32;;
19280;SDS011;9774;52.034;5.342;2022-07-05T13:06:41;1.50;;;0.50;;
19280;SDS011;9774;52.034;5.342;2022-07-05T13:09:15;0.90;;;0.22;;
19280;SDS011;9774;52.034;5.342;2022-07-05T13:12:04;1.17;;;0.50;;
19280;SDS011;9774;52.034;5.342;2022-07-05T13:14:36;0.82;;;0.40;;
19280;SDS011;9774;52.034;5.342;2022-07-05T13:17:05;1.02;;;0.25;;
19280;SDS011;9774;52.034;5.342;2022-07-05T13:19:32;2.65;;;0.40;;
19280;SDS011;9774;52.034;5.342;2022-07-05T13:22:00;0.80;;;0.40;;
19280;SDS011;9774;52.034;5.342;2022-07-05T13:24:29;0.63;;;0.40;;
19280;SDS011;9774;52.034;5.342;2022-07-05T13:26:57;2.58;;;0.50;;
19280;SDS011;9774;52.034;5.342;2022-07-05T13:29:24;1.25;;;0.30;;
19280;SDS011;9774;52.034;5.342;2022-07-05T13:31:52;2.47;;;0.47;;
19280;SDS011;9774;52.034;5.342;2022-07-05T13:34:19;2.15;;;0.40;;
19280;SDS011;9774;52.034;5.342;2022-07-05T13:36:48;0.50;;;0.30;;
19280;SDS011;9774;52.034;5.342;2022-07-05T13:39:16;1.38;;;0.50;;
19280;SDS011;9774;52.034;5.342;2022-07-05T13:41:46;0.63;;;0.35;;
19280;SDS011;9774;52.034;5.342;2022-07-05T13:44:14;1.65;;;0.47;;
19280;SDS011;9774;52.034;5.342;2022-07-05T13:46:41;0.52;;;0.20;;
19280;SDS011;9774;52.034;5.342;2022-07-05T13:49:10;0.80;;;0.40;;
19280;SDS011;9774;52.034;5.342;2022-07-05T13:51:37;0.90;;;0.43;;
19280;SDS011;9774;52.034;5.342;2022-07-05T13:54:04;0.65;;;0.30;;
19280;SDS011;9774;52.034;5.342;2022-07-05T13:56:32;0.40;;;0.25;;
19280;SDS011;9774;52.034;5.342;2022-07-05T13:59:02;0.40;;;0.30;;
19280;SDS011;9774;52.034;5.342;2022-07-05T14:01:29;0.80;;;0.30;;
19280;SDS011;9774;52.034;5.342;2022-07-05T14:03:57;1.42;;;0.30;;
19280;SDS011;9774;52.034;5.342;2022-07-05T14:06:27;0.88;;;0.50;;
19280;SDS011;9774;52.034;5.342;2022-07-05T14:08:55;0.88;;;0.30;;
19280;SDS011;9774;52.034;5.342;2022-07-05T14:11:23;0.45;;;0.25;;
19280;SDS011;9774;52.034;5.342;2022-07-05T14:13:51;0.82;;;0.40;;
19280;SDS011;9774;52.034;5.342;2022-07-05T14:16:20;1.02;;;0.50;;
19280;SDS011;9774;52.034;5.342;2022-07-05T14:18:47;1.02;;;0.60;;
19280;SDS011;9774;52.034;5.342;2022-07-05T14:21:15;0.90;;;0.40;;
19280;SDS011;9774;52.034;5.342;2022-07-05T14:23:43;0.73;;;0.40;;
19280;SDS011;9774;52.034;5.342;2022-07-05T14:26:11;0.35;;;0.30;;
19280;SDS011;9774;52.034;5.342;2022-07-05T14:28:39;1.05;;;0.40;;
19280;SDS011;9774;52.034;5.342;2022-07-05T14:31:06;1.60;;;0.40;;
19280;SDS011;9774;52.034;5.342;2022-07-05T14:33:35;0.55;;;0.43;;
19280;SDS011;9774;52.034;5.342;2022-07-05T14:36:05;1.83;;;0.40;;
19280;SDS011;9774;52.034;5.342;2022-07-05T14:38:32;1.17;;;0.50;;
19280;SDS011;9774;52.034;5.342;2022-07-05T14:40:59;0.40;;;0.20;;
19280;SDS011;9774;52.034;5.342;2022-07-05T14:43:27;0.52;;;0.43;;
19280;SDS011;9774;52.034;5.342;2022-07-05T14:45:54;2.00;;;0.50;;
19280;SDS011;9774;52.034;5.342;2022-07-05T14:48:22;0.82;;;0.50;;
19280;SDS011;9774;52.034;5.342;2022-07-05T14:50:52;1.20;;;0.55;;
19280;SDS011;9774;52.034;5.342;2022-07-05T14:53:19;1.20;;;0.70;;
19280;SDS011;9774;52.034;5.342;2022-07-05T14:55:46;1.10;;;0.50;;
19280;SDS011;9774;52.034;5.342;2022-07-05T14:58:14;0.82;;;0.45;;
19280;SDS011;9774;52.034;5.342;2022-07-05T15:00:42;0.68;;;0.40;;
19280;SDS011;9774;52.034;5.342;2022-07-05T15:03:09;0.65;;;0.30;;
19280;SDS011;9774;52.034;5.342;2022-07-05T15:05:36;2.63;;;0.50;;
19280;SDS011;9774;52.034;5.342;2022-07-05T15:08:05;0.55;;;0.40;;
19280;SDS011;9774;52.034;5.342;2022-07-05T15:10:32;1.45;;;0.70;;
19280;SDS011;9774;52.034;5.342;2022-07-05T15:12:59;0.85;;;0.40;;
19280;SDS011;9774;52.034;5.342;2022-07-05T15:15:27;1.33;;;0.40;;
19280;SDS011;9774;52.034;5.342;2022-07-05T15:17:54;0.45;;;0.40;;
19280;SDS011;9774;52.034;5.342;2022-07-05T15:20:21;1.05;;;0.45;;
19280;SDS011;9774;52.034;5.342;2022-07-05T15:22:49;0.70;;;0.40;;
19280;SDS011;9774;52.034;5.342;2022-07-05T15:25:18;1.45;;;0.40;;